Time;durP1;ratioP1;P1;durP2;ratioP2;P2;SDS_P1;SDS_P2;PMS_P1;PMS_P2;Temp;Humidity;BMP_temperature;BMP_pressure;BME280_temperature;BME280_humidity;BME280_pressure;Samples;Min_cycle;Max_cycle;Signal;HPM_P1;HPM_P2
2022/04/12 00:02:50;;;;;;;8.13;4.95;;;;;;;;;;10267445;28;20498;-65
2022/04/12 00:07:49;;;;;;;8.60;5.63;;;;;;;;;;10267683;28;20165;-65
2022/04/12 00:12:48;;;;;;;5.60;4.60;;;;;;;;;;10277322;28;20103;-64
2022/04/12 00:23:03;;;;;;;6.05;4.85;;;;;;;;;;10269179;28;20053;-64
2022/04/12 00:28:04;;;;;;;5.45;3.90;;;;;;;;;;10276105;28;20449;-64
2022/04/12 00:33:03;;;;;;;5.18;4.18;;;;;;;;;;10276019;28;20485;-65
2022/04/12 00:38:13;;;;;;;5.38;4.85;;;;;;;;;;10268132;28;20498;-64
2022/04/12 00:43:12;;;;;;;5.03;4.03;;;;;;;;;;10266642;28;20488;-65
2022/04/12 00:48:11;;;;;;;4.88;4.38;;;;;;;;;;10265608;28;20064;-65
2022/04/12 00:53:10;;;;;;;4.70;4.20;;;;;;;;;;10266461;28;20152;-65
2022/04/12 00:58:08;;;;;;;4.82;4.07;;;;;;;;;;10266305;28;20069;-65
2022/04/12 01:03:08;;;;;;;4.38;3.97;;;;;;;;;;10266017;28;20587;-64
2022/04/12 01:08:06;;;;;;;5.40;4.50;;;;;;;;;;10265754;28;20060;-64
2022/04/12 01:13:05;;;;;;;5.30;4.47;;;;;;;;;;10266229;28;20052;-65
2022/04/12 01:18:03;;;;;;;4.93;3.85;;;;;;;;;;10265773;28;20076;-64
2022/04/12 01:23:08;;;;;;;9.48;6.90;;;;;;;;;;10263912;28;20433;-65
2022/04/12 01:28:08;;;;;;;6.50;5.20;;;;;;;;;;10265454;28;20072;-64
2022/04/12 01:33:06;;;;;;;8.50;4.57;;;;;;;;;;10267769;28;20048;-64
2022/04/12 01:38:05;;;;;;;6.50;4.93;;;;;;;;;;10282855;28;20100;-64
2022/04/12 01:43:03;;;;;;;7.03;5.13;;;;;;;;;;10282146;28;20049;-64
2022/04/12 01:48:03;;;;;;;5.28;4.45;;;;;;;;;;10282211;28;20076;-65
2022/04/12 01:53:03;;;;;;;6.68;5.35;;;;;;;;;;10266500;28;20076;-65
2022/04/12 01:58:04;;;;;;;6.07;5.15;;;;;;;;;;10270447;28;20079;-65
2022/04/12 02:03:03;;;;;;;6.28;4.88;;;;;;;;;;10272914;28;20073;-64
2022/04/12 02:08:02;;;;;;;5.53;4.82;;;;;;;;;;10272462;28;20509;-64
2022/04/12 02:13:00;;;;;;;7.00;5.10;;;;;;;;;;10273228;28;20061;-64
2022/04/12 02:17:58;;;;;;;7.63;6.55;;;;;;;;;;10278344;28;20084;-65
2022/04/12 02:22:58;;;;;;;9.48;5.75;;;;;;;;;;10270853;28;20075;-65
2022/04/12 02:27:56;;;;;;;8.27;6.85;;;;;;;;;;10267528;28;20067;-64
2022/04/12 02:32:54;;;;;;;11.25;6.75;;;;;;;;;;10268517;28;20049;-64
2022/04/12 02:37:53;;;;;;;8.48;6.80;;;;;;;;;;10271877;28;20084;-65
2022/04/12 02:42:52;;;;;;;7.50;6.68;;;;;;;;;;10270339;28;20962;-65
2022/04/12 02:47:51;;;;;;;7.60;5.90;;;;;;;;;;10270385;28;20076;-65
2022/04/12 02:52:49;;;;;;;14.63;8.93;;;;;;;;;;10270335;28;20073;-64
2022/04/12 02:57:47;;;;;;;8.50;7.13;;;;;;;;;;10263230;28;20081;-64
2022/04/12 03:02:47;;;;;;;8.13;6.50;;;;;;;;;;10269245;28;20061;-64
2022/04/12 03:07:45;;;;;;;6.75;6.05;;;;;;;;;;10269089;28;20045;-65
2022/04/12 03:12:43;;;;;;;7.88;5.97;;;;;;;;;;10269840;28;20041;-64
2022/04/12 03:17:41;;;;;;;9.05;8.15;;;;;;;;;;10269673;28;20080;-64
2022/04/12 03:22:41;;;;;;;9.13;7.78;;;;;;;;;;10268635;28;20077;-64
2022/04/12 03:27:40;;;;;;;19.20;8.23;;;;;;;;;;10272515;28;20628;-64
2022/04/12 03:32:38;;;;;;;10.20;8.07;;;;;;;;;;10292679;28;20087;-65
2022/04/12 03:37:36;;;;;;;8.20;6.68;;;;;;;;;;10269110;28;20478;-64
2022/04/12 03:42:36;;;;;;;7.43;5.65;;;;;;;;;;10269995;28;20081;-64
2022/04/12 03:47:34;;;;;;;7.70;6.78;;;;;;;;;;10268300;28;20087;-65
2022/04/12 03:52:32;;;;;;;7.35;5.88;;;;;;;;;;10267855;28;20041;-64
2022/04/12 03:57:32;;;;;;;8.10;7.30;;;;;;;;;;10267757;28;20530;-65
2022/04/12 04:02:32;;;;;;;14.15;9.20;;;;;;;;;;10267522;28;20079;-63
2022/04/12 04:07:30;;;;;;;8.25;7.45;;;;;;;;;;10267324;28;20073;-64
2022/04/12 04:12:28;;;;;;;9.90;8.50;;;;;;;;;;10261843;28;20080;-64
2022/04/12 04:17:27;;;;;;;17.10;9.25;;;;;;;;;;10269247;28;20077;-63
2022/04/12 04:22:26;;;;;;;10.60;7.72;;;;;;;;;;10271730;28;20184;-64
2022/04/12 04:27:28;;;;;;;10.40;8.82;;;;;;;;;;10272450;28;20087;-64
2022/04/12 04:32:27;;;;;;;14.25;8.80;;;;;;;;;;10260604;28;20080;-64
2022/04/12 04:37:26;;;;;;;12.02;8.95;;;;;;;;;;10272922;28;20069;-63
2022/04/12 04:42:27;;;;;;;8.63;6.78;;;;;;;;;;10257862;28;20511;-63
2022/04/12 04:47:25;;;;;;;7.78;6.65;;;;;;;;;;10266731;28;20093;-64
2022/04/12 04:52:23;;;;;;;11.77;9.05;;;;;;;;;;10277179;28;20532;-64
2022/04/12 04:57:25;;;;;;;15.27;11.38;;;;;;;;;;10275591;28;20075;-64
2022/04/12 05:02:23;;;;;;;15.63;11.75;;;;;;;;;;10257877;28;20065;-63
2022/04/12 05:07:25;;;;;;;7.68;6.88;;;;;;;;;;10251881;28;20072;-63
2022/04/12 05:12:24;;;;;;;12.18;9.63;;;;;;;;;;10258566;28;20085;-64
2022/04/12 05:17:26;;;;;;;15.30;10.77;;;;;;;;;;10265146;28;20075;-64
2022/04/12 05:22:25;;;;;;;8.95;7.15;;;;;;;;;;10275858;28;20082;-63
2022/04/12 05:27:23;;;;;;;14.43;7.93;;;;;;;;;;10262410;28;20042;-63
2022/04/12 05:32:23;;;;;;;9.90;8.90;;;;;;;;;;10265784;28;20083;-63
2022/04/12 05:37:21;;;;;;;11.00;8.60;;;;;;;;;;10261730;28;20459;-63
2022/04/12 05:42:19;;;;;;;7.97;7.05;;;;;;;;;;10269562;28;20091;-63
2022/04/12 05:47:18;;;;;;;10.30;7.75;;;;;;;;;;10265689;28;20061;-63
2022/04/12 05:52:18;;;;;;;16.33;9.45;;;;;;;;;;10261024;28;20075;-64
2022/04/12 05:57:16;;;;;;;13.18;7.13;;;;;;;;;;10267624;28;20513;-65
2022/04/12 06:02:17;;;;;;;9.80;7.65;;;;;;;;;;10267106;28;20071;-63
2022/04/12 06:07:15;;;;;;;8.98;7.40;;;;;;;;;;10261196;28;20076;-62
2022/04/12 06:12:15;;;;;;;11.73;9.85;;;;;;;;;;10258531;28;20549;-63
2022/04/12 06:17:13;;;;;;;12.27;7.28;;;;;;;;;;10258141;28;20087;-63
2022/04/12 06:22:11;;;;;;;7.95;7.00;;;;;;;;;;10271881;28;20163;-63
2022/04/12 06:27:09;;;;;;;9.77;7.00;;;;;;;;;;10262666;28;20068;-65
2022/04/12 06:32:09;;;;;;;6.82;6.13;;;;;;;;;;10266534;28;20076;-64
2022/04/12 06:37:08;;;;;;;33.78;10.10;;;;;;;;;;10265759;28;20076;-64
2022/04/12 06:42:07;;;;;;;7.15;6.18;;;;;;;;;;10264157;28;20541;-64
2022/04/12 06:47:06;;;;;;;8.60;7.43;;;;;;;;;;10267070;28;20102;-64
2022/04/12 06:52:06;;;;;;;8.63;7.32;;;;;;;;;;10268356;28;20616;-64
2022/04/12 06:57:04;;;;;;;8.05;7.07;;;;;;;;;;10268669;28;20076;-64
2022/04/12 07:02:02;;;;;;;8.20;6.43;;;;;;;;;;10268943;28;20081;-64
2022/04/12 07:07:01;;;;;;;7.68;5.97;;;;;;;;;;10268178;28;20088;-63
2022/04/12 07:12:01;;;;;;;10.48;5.97;;;;;;;;;;10273817;28;20451;-64
2022/04/12 07:17:00;;;;;;;14.25;6.72;;;;;;;;;;10277113;28;20049;-64
2022/04/12 07:21:58;;;;;;;8.23;5.85;;;;;;;;;;10271716;28;20072;-65
2022/04/12 07:26:56;;;;;;;8.02;6.13;;;;;;;;;;10268509;28;20061;-65
2022/04/12 07:31:56;;;;;;;11.05;6.28;;;;;;;;;;10268551;28;20099;-64
2022/04/12 07:36:55;;;;;;;21.55;7.20;;;;;;;;;;10264336;28;20073;-64
2022/04/12 07:41:53;;;;;;;8.43;6.35;;;;;;;;;;10264287;28;20096;-65
2022/04/12 07:46:51;;;;;;;6.70;5.72;;;;;;;;;;10264085;28;20890;-64
2022/04/12 07:51:51;;;;;;;9.60;5.30;;;;;;;;;;10267097;28;20038;-64
2022/04/12 07:56:49;;;;;;;7.70;5.53;;;;;;;;;;10263391;28;20490;-64
2022/04/12 08:01:47;;;;;;;7.78;6.45;;;;;;;;;;10266052;28;20137;-64
2022/04/12 08:06:46;;;;;;;6.90;5.80;;;;;;;;;;10265877;28;20084;-64
2022/04/12 08:11:46;;;;;;;7.30;6.22;;;;;;;;;;10266102;28;20085;-64
2022/04/12 08:16:44;;;;;;;8.77;7.03;;;;;;;;;;10265337;28;20081;-63
2022/04/12 08:21:43;;;;;;;6.28;5.25;;;;;;;;;;10264920;28;20079;-63
2022/04/12 08:26:41;;;;;;;7.07;5.88;;;;;;;;;;10265542;28;20092;-64
2022/04/12 08:31:41;;;;;;;9.48;6.50;;;;;;;;;;10265168;28;20037;-64
2022/04/12 08:36:39;;;;;;;6.38;5.75;;;;;;;;;;10263916;28;20521;-64
2022/04/12 08:41:39;;;;;;;6.63;4.88;;;;;;;;;;10259199;28;20161;-64
2022/04/12 08:46:38;;;;;;;10.57;6.35;;;;;;;;;;10260250;28;20048;-64
2022/04/12 08:51:38;;;;;;;5.65;5.03;;;;;;;;;;10266380;28;20069;-64
2022/04/12 08:56:36;;;;;;;9.75;5.20;;;;;;;;;;10260519;28;20107;-64
2022/04/12 09:01:35;;;;;;;6.63;4.78;;;;;;;;;;10264414;28;20076;-64
2022/04/12 09:06:33;;;;;;;5.45;4.95;;;;;;;;;;10264332;28;20073;-63
2022/04/12 09:11:35;;;;;;;13.35;7.03;;;;;;;;;;10264217;28;20099;-65
2022/04/12 09:16:33;;;;;;;4.82;4.10;;;;;;;;;;10264475;28;20079;-64
2022/04/12 09:21:31;;;;;;;5.68;3.88;;;;;;;;;;10257843;28;20528;-64
2022/04/12 09:26:30;;;;;;;11.38;4.57;;;;;;;;;;10264133;28;20095;-64
2022/04/12 09:31:33;;;;;;;11.70;5.07;;;;;;;;;;10263934;28;20532;-64
2022/04/12 09:36:34;;;;;;;11.13;8.07;;;;;;;;;;10264402;28;20068;-63
2022/04/12 09:41:32;;;;;;;9.65;4.10;;;;;;;;;;10265628;28;20061;-63
2022/04/12 09:46:33;;;;;;;2.78;2.55;;;;;;;;;;10265108;28;20041;-63
2022/04/12 09:51:32;;;;;;;2.35;2.10;;;;;;;;;;10272107;28;20071;-63
2022/04/12 09:56:31;;;;;;;4.50;2.25;;;;;;;;;;10279513;28;20076;-64
2022/04/12 10:01:31;;;;;;;2.90;2.55;;;;;;;;;;10276756;28;20513;-64
2022/04/12 10:06:31;;;;;;;4.38;2.90;;;;;;;;;;10264501;28;20474;-63
2022/04/12 10:11:29;;;;;;;3.53;2.70;;;;;;;;;;10253693;28;20060;-63
2022/04/12 10:16:27;;;;;;;7.30;2.90;;;;;;;;;;10268116;28;20049;-63
2022/04/12 10:21:26;;;;;;;3.47;2.20;;;;;;;;;;10269735;28;20065;-63
2022/04/12 10:26:27;;;;;;;7.60;2.60;;;;;;;;;;10269786;28;20073;-63
2022/04/12 10:31:28;;;;;;;3.78;2.20;;;;;;;;;;10270155;28;20073;-63
2022/04/12 10:36:54;;;;;;;3.78;2.97;;;;;;;;;;10272949;28;20064;-63
2022/04/12 10:42:18;;;;;;;4.97;2.10;;;;;;;;;;10266547;28;20490;-63
2022/04/12 10:47:27;;;;;;;3.20;2.20;;;;;;;;;;10270056;28;20086;-64
2022/04/12 10:52:35;;;;;;;9.10;3.80;;;;;;;;;;10266038;28;20076;-63
2022/04/12 10:57:37;;;;;;;4.53;2.30;;;;;;;;;;10263824;28;20093;-63
2022/04/12 11:02:40;;;;;;;15.55;2.90;;;;;;;;;;10268905;28;20053;-63
2022/04/12 11:07:38;;;;;;;2.78;2.35;;;;;;;;;;10266570;28;20079;-63
2022/04/12 11:12:42;;;;;;;6.80;6.10;;;;;;;;;;10268527;28;20080;-62
2022/04/12 11:17:40;;;;;;;2.47;2.00;;;;;;;;;;10267150;28;20080;-63
2022/04/12 11:22:42;;;;;;;5.22;3.45;;;;;;;;;;10267088;28;20077;-63
2022/04/12 11:27:42;;;;;;;15.45;6.65;;;;;;;;;;10267465;28;20092;-63
2022/04/12 11:32:40;;;;;;;23.73;10.63;;;;;;;;;;10267757;28;20473;-64
2022/04/12 11:37:39;;;;;;;8.07;4.05;;;;;;;;;;10267205;28;20080;-63
2022/04/12 11:42:37;;;;;;;8.18;5.18;;;;;;;;;;10267046;28;20080;-64
2022/04/12 11:47:39;;;;;;;4.47;2.25;;;;;;;;;;10265659;28;20060;-64
2022/04/12 11:52:37;;;;;;;3.50;2.13;;;;;;;;;;10266709;28;20072;-64
2022/04/12 11:57:35;;;;;;;3.15;2.83;;;;;;;;;;10266123;28;20080;-64
2022/04/12 12:02:36;;;;;;;14.02;2.85;;;;;;;;;;10265914;28;20065;-63
2022/04/12 12:07:36;;;;;;;4.18;3.40;;;;;;;;;;10266172;28;20422;-64
2022/04/12 12:12:35;;;;;;;6.20;4.60;;;;;;;;;;10265662;28;20081;-64
2022/04/12 12:17:33;;;;;;;8.32;5.47;;;;;;;;;;10266053;28;20088;-64
2022/04/12 12:22:37;;;;;;;7.25;4.60;;;;;;;;;;10263951;28;20056;-64
2022/04/12 12:27:36;;;;;;;5.03;2.40;;;;;;;;;;10265657;28;20088;-64
2022/04/12 12:32:36;;;;;;;3.95;2.50;;;;;;;;;;10264943;28;20057;-64
2022/04/12 12:37:34;;;;;;;5.22;2.83;;;;;;;;;;10265063;28;20081;-64
2022/04/12 12:42:38;;;;;;;2.15;1.80;;;;;;;;;;10264642;28;20095;-63
2022/04/12 12:47:36;;;;;;;9.18;3.10;;;;;;;;;;10250499;28;20080;-64
2022/04/12 12:52:35;;;;;;;6.43;5.20;;;;;;;;;;10264354;28;20137;-64
2022/04/12 12:57:39;;;;;;;6.10;2.97;;;;;;;;;;10259224;28;20536;-64
2022/04/12 13:02:37;;;;;;;10.40;6.93;;;;;;;;;;10259062;28;20073;-64
2022/04/12 13:07:37;;;;;;;7.10;2.20;;;;;;;;;;10264618;28;20073;-64
2022/04/12 13:12:35;;;;;;;5.75;2.35;;;;;;;;;;10250373;28;20471;-64
2022/04/12 13:17:35;;;;;;;9.35;2.45;;;;;;;;;;10264099;28;20073;-64
2022/04/12 13:22:33;;;;;;;5.40;4.38;;;;;;;;;;10263499;28;20037;-63
2022/04/12 13:27:32;;;;;;;6.30;2.53;;;;;;;;;;10258337;28;20052;-64
2022/04/12 13:32:30;;;;;;;2.85;2.53;;;;;;;;;;10273077;28;20061;-64
2022/04/12 13:37:29;;;;;;;2.78;2.00;;;;;;;;;;10272046;28;20078;-64
2022/04/12 13:42:28;;;;;;;4.32;3.10;;;;;;;;;;10265745;28;20049;-64
2022/04/12 13:47:26;;;;;;;4.63;3.30;;;;;;;;;;10265523;28;20081;-64
2022/04/12 13:52:24;;;;;;;3.42;3.10;;;;;;;;;;10271722;28;20083;-65
2022/04/12 13:57:24;;;;;;;5.10;3.53;;;;;;;;;;10271303;28;20418;-62
2022/04/12 14:02:23;;;;;;;3.25;2.00;;;;;;;;;;10271910;28;20080;-63
2022/04/12 14:07:22;;;;;;;1.90;1.65;;;;;;;;;;10271491;28;20072;-63
2022/04/12 14:12:21;;;;;;;2.67;2.28;;;;;;;;;;10270754;28;20069;-64
2022/04/12 14:17:21;;;;;;;10.55;6.50;;;;;;;;;;10268199;28;20096;-64
2022/04/12 14:22:20;;;;;;;7.20;3.50;;;;;;;;;;10269734;28;20080;-64
2022/04/12 14:27:19;;;;;;;2.92;1.98;;;;;;;;;;10271083;28;20485;-64
2022/04/12 14:32:18;;;;;;;3.15;2.45;;;;;;;;;;10270906;28;20281;-64
2022/04/12 14:37:17;;;;;;;4.13;3.22;;;;;;;;;;10270417;28;20084;-64
2022/04/12 14:42:16;;;;;;;12.77;9.10;;;;;;;;;;10268271;28;20088;-64
2022/04/12 14:47:14;;;;;;;5.93;3.47;;;;;;;;;;10269304;28;20049;-65
2022/04/12 14:52:12;;;;;;;6.22;4.70;;;;;;;;;;10269692;28;20088;-64
2022/04/12 14:57:12;;;;;;;8.65;7.20;;;;;;;;;;10269882;28;20076;-64
2022/04/12 15:02:11;;;;;;;12.13;6.80;;;;;;;;;;10269498;28;20075;-64
2022/04/12 15:07:09;;;;;;;8.20;6.10;;;;;;;;;;10269279;28;20068;-64
2022/04/12 15:12:07;;;;;;;3.92;3.22;;;;;;;;;;10269243;28;20099;-63
2022/04/12 15:17:07;;;;;;;5.82;4.22;;;;;;;;;;10268701;28;20490;-63
2022/04/12 15:22:06;;;;;;;11.90;8.70;;;;;;;;;;10274644;28;20065;-63
2022/04/12 15:27:04;;;;;;;4.78;3.13;;;;;;;;;;10267323;28;20073;-63
2022/04/12 15:32:03;;;;;;;7.68;5.80;;;;;;;;;;10276396;28;20433;-63
2022/04/12 15:37:03;;;;;;;9.85;5.60;;;;;;;;;;10271142;28;20092;-63
2022/04/12 15:42:01;;;;;;;25.33;13.80;;;;;;;;;;10266219;28;20095;-63
2022/04/12 15:46:59;;;;;;;17.55;7.47;;;;;;;;;;10268804;28;20049;-63
2022/04/12 15:51:58;;;;;;;37.05;25.00;;;;;;;;;;10267000;28;20503;-63
2022/04/12 15:56:58;;;;;;;37.08;19.33;;;;;;;;;;10267266;28;20085;-63
2022/04/12 16:01:56;;;;;;;36.00;18.33;;;;;;;;;;10267038;28;20471;-63
2022/04/12 16:06:56;;;;;;;22.52;14.95;;;;;;;;;;10266568;28;20065;-63
2022/04/12 16:11:54;;;;;;;15.00;7.90;;;;;;;;;;10264128;28;20065;-63
2022/04/12 16:16:55;;;;;;;16.85;11.48;;;;;;;;;;10263821;28;20081;-63
2022/04/12 16:21:53;;;;;;;16.52;11.32;;;;;;;;;;10262977;28;20065;-63
2022/04/12 16:26:51;;;;;;;19.05;12.68;;;;;;;;;;10265481;28;20073;-63
2022/04/12 16:31:49;;;;;;;61.17;37.60;;;;;;;;;;10265059;28;20084;-63
2022/04/12 16:36:49;;;;;;;34.88;24.52;;;;;;;;;;10265166;28;20073;-63
2022/04/12 16:41:47;;;;;;;41.90;31.13;;;;;;;;;;10264141;28;20080;-62
2022/04/12 16:46:47;;;;;;;40.70;26.27;;;;;;;;;;10264498;28;20525;-64
2022/04/12 16:51:45;;;;;;;81.03;46.03;;;;;;;;;;10264429;28;20096;-63
2022/04/12 16:56:45;;;;;;;83.65;57.05;;;;;;;;;;10288261;28;20068;-62
2022/04/12 17:01:43;;;;;;;45.95;33.80;;;;;;;;;;10262019;28;20505;-62
2022/04/12 17:06:43;;;;;;;31.15;26.15;;;;;;;;;;10263266;28;20079;-63
2022/04/12 17:11:42;;;;;;;33.30;22.92;;;;;;;;;;10253207;28;20105;-63
2022/04/12 17:16:42;;;;;;;12.05;9.43;;;;;;;;;;10261641;28;20076;-64
2022/04/12 17:21:40;;;;;;;9.40;6.38;;;;;;;;;;10262965;28;20083;-65
2022/04/12 17:26:39;;;;;;;10.55;6.20;;;;;;;;;;10271978;28;20541;-65
2022/04/12 17:31:37;;;;;;;10.98;6.25;;;;;;;;;;10249091;28;20100;-64
2022/04/12 17:36:37;;;;;;;5.45;4.28;;;;;;;;;;10249297;28;20076;-64
2022/04/12 17:41:35;;;;;;;22.45;15.32;;;;;;;;;;10262680;28;20107;-64
2022/04/12 17:46:35;;;;;;;11.32;8.02;;;;;;;;;;10263631;28;20076;-63
2022/04/12 17:51:33;;;;;;;22.13;12.10;;;;;;;;;;10255669;28;20517;-65
2022/04/12 17:56:33;;;;;;;14.48;8.68;;;;;;;;;;10269487;28;20460;-65
2022/04/12 18:01:31;;;;;;;11.48;7.13;;;;;;;;;;10264237;28;20073;-65
2022/04/12 18:06:29;;;;;;;14.10;8.13;;;;;;;;;;10262825;28;20073;-65
2022/04/12 18:11:28;;;;;;;8.27;6.30;;;;;;;;;;10263589;28;20740;-65
2022/04/12 18:16:27;;;;;;;9.13;6.18;;;;;;;;;;10262572;28;20064;-65
2022/04/12 18:21:26;;;;;;;6.80;4.80;;;;;;;;;;10267247;28;20492;-65
2022/04/12 18:26:24;;;;;;;6.63;5.13;;;;;;;;;;10265435;28;20468;-65
2022/04/12 18:31:22;;;;;;;5.45;4.30;;;;;;;;;;10267062;28;20068;-65
2022/04/12 18:36:22;;;;;;;3.90;3.50;;;;;;;;;;10273250;28;20072;-64
2022/04/12 18:41:20;;;;;;;3.17;2.80;;;;;;;;;;10271993;28;20107;-64
2022/04/12 18:46:18;;;;;;;5.65;3.40;;;;;;;;;;10276467;28;20076;-64
2022/04/12 18:51:17;;;;;;;4.55;3.30;;;;;;;;;;10270318;28;20497;-64
2022/04/12 18:56:19;;;;;;;8.13;3.83;;;;;;;;;;10268577;28;20075;-64
2022/04/12 19:01:18;;;;;;;9.23;5.43;;;;;;;;;;10270390;28;20068;-64
2022/04/12 19:06:16;;;;;;;7.85;5.32;;;;;;;;;;10267900;28;20072;-64
2022/04/12 19:11:15;;;;;;;5.60;4.20;;;;;;;;;;10272910;28;20073;-65
2022/04/12 19:16:14;;;;;;;7.85;4.13;;;;;;;;;;10267039;28;20068;-64
2022/04/12 19:21:14;;;;;;;6.57;5.00;;;;;;;;;;10266171;28;21578;-64
2022/04/12 19:26:12;;;;;;;3.28;2.85;;;;;;;;;;10265876;28;20085;-64
2022/04/12 19:31:11;;;;;;;8.98;5.35;;;;;;;;;;10268573;28;20501;-64
2022/04/12 19:36:11;;;;;;;5.70;4.68;;;;;;;;;;10268462;28;20152;-64
2022/04/12 19:41:10;;;;;;;15.85;10.43;;;;;;;;;;10267386;28;21393;-64
2022/04/12 19:46:09;;;;;;;5.72;4.47;;;;;;;;;;10262036;28;20083;-64
2022/04/12 19:51:07;;;;;;;6.20;4.50;;;;;;;;;;10267539;28;20482;-63
2022/04/12 19:56:07;;;;;;;9.68;6.25;;;;;;;;;;10272183;28;20471;-64
2022/04/12 20:01:07;;;;;;;7.72;5.32;;;;;;;;;;10264918;28;20076;-64
2022/04/12 20:06:05;;;;;;;5.13;3.58;;;;;;;;;;10268173;28;20048;-64
2022/04/12 20:11:04;;;;;;;4.43;3.45;;;;;;;;;;10272704;28;20079;-64
2022/04/12 20:16:04;;;;;;;4.38;3.17;;;;;;;;;;10267626;28;20410;-63
2022/04/12 20:21:04;;;;;;;4.85;4.03;;;;;;;;;;10264616;28;20084;-63
2022/04/12 20:26:03;;;;;;;4.40;3.72;;;;;;;;;;10270652;28;20083;-65
2022/04/12 20:31:01;;;;;;;8.48;5.75;;;;;;;;;;10267743;28;20060;-64
2022/04/12 20:36:01;;;;;;;16.15;9.38;;;;;;;;;;10263875;28;20080;-66
2022/04/12 20:40:59;;;;;;;8.52;5.22;;;;;;;;;;10270085;28;20092;-63
2022/04/12 20:45:57;;;;;;;5.90;5.22;;;;;;;;;;10258291;28;20486;-63
2022/04/12 20:50:55;;;;;;;7.50;6.10;;;;;;;;;;10266805;28;20091;-63
2022/04/12 20:55:55;;;;;;;3.10;2.72;;;;;;;;;;10263734;28;20582;-64
2022/04/12 21:00:53;;;;;;;15.60;12.55;;;;;;;;;;10266113;28;20109;-63
2022/04/12 21:05:52;;;;;;;11.45;7.47;;;;;;;;;;10266464;28;20650;-64
2022/04/12 21:10:50;;;;;;;10.10;7.38;;;;;;;;;;10278413;28;20506;-65
2022/04/12 21:15:50;;;;;;;14.25;7.97;;;;;;;;;;10262961;28;20076;-66
2022/04/12 21:20:49;;;;;;;10.75;7.85;;;;;;;;;;10263305;28;20068;-64
2022/04/12 21:25:48;;;;;;;10.38;6.90;;;;;;;;;;10281066;28;20393;-64
2022/04/12 21:30:46;;;;;;;11.02;6.50;;;;;;;;;;10263981;28;20079;-64
2022/04/12 21:35:45;;;;;;;10.18;6.00;;;;;;;;;;10262050;28;20532;-64
2022/04/12 21:40:44;;;;;;;7.53;5.65;;;;;;;;;;10274910;28;20163;-64
2022/04/12 21:45:42;;;;;;;8.25;6.10;;;;;;;;;;10276046;28;20071;-64
2022/04/12 21:50:40;;;;;;;9.20;5.65;;;;;;;;;;10281837;28;20072;-64
2022/04/12 21:55:46;;;;;;;5.63;4.65;;;;;;;;;;10264813;28;20075;-64
2022/04/12 22:00:45;;;;;;;5.78;4.57;;;;;;;;;;10276508;28;20497;-64
2022/04/12 22:05:44;;;;;;;8.23;4.93;;;;;;;;;;10274323;28;20056;-64
2022/04/12 22:10:42;;;;;;;6.93;4.38;;;;;;;;;;10268766;28;20075;-64
2022/04/12 22:15:42;;;;;;;6.00;4.07;;;;;;;;;;10273047;28;20073;-65
2022/04/12 22:20:41;;;;;;;3.37;2.70;;;;;;;;;;10273575;28;20044;-64
2022/04/12 22:25:39;;;;;;;5.13;3.00;;;;;;;;;;10279635;28;20490;-64
2022/04/12 22:30:38;;;;;;;6.32;3.65;;;;;;;;;;10273591;28;20068;-64
2022/04/12 22:35:37;;;;;;;7.90;4.43;;;;;;;;;;10269733;28;20079;-64
2022/04/12 22:40:36;;;;;;;4.72;4.22;;;;;;;;;;10267857;28;20045;-64
2022/04/12 22:45:34;;;;;;;6.90;6.13;;;;;;;;;;10269165;28;20076;-65
2022/04/12 22:50:32;;;;;;;8.35;6.72;;;;;;;;;;10278534;28;20071;-64
2022/04/12 22:55:32;;;;;;;8.32;6.45;;;;;;;;;;10278544;28;20045;-65
2022/04/12 23:00:31;;;;;;;8.68;6.45;;;;;;;;;;10277285;28;20069;-65
2022/04/12 23:05:29;;;;;;;7.25;5.65;;;;;;;;;;10268420;28;20493;-64
2022/04/12 23:10:28;;;;;;;7.15;5.10;;;;;;;;;;10267706;28;20065;-65
2022/04/12 23:15:28;;;;;;;8.05;5.18;;;;;;;;;;10268641;28;20077;-65
2022/04/12 23:20:27;;;;;;;9.60;4.70;;;;;;;;;;10268381;28;20084;-64
2022/04/12 23:25:26;;;;;;;8.07;4.78;;;;;;;;;;10265361;28;20080;-65
2022/04/12 23:30:25;;;;;;;8.55;5.35;;;;;;;;;;10267712;28;20072;-65
2022/04/12 23:35:25;;;;;;;5.88;4.35;;;;;;;;;;10265435;28;20053;-64
2022/04/12 23:40:23;;;;;;;7.20;4.47;;;;;;;;;;10257251;28;20085;-64
2022/04/12 23:45:21;;;;;;;6.43;4.85;;;;;;;;;;10266069;28;20520;-65
2022/04/12 23:50:19;;;;;;;5.78;4.93;;;;;;;;;;10266650;28;20080;-65
2022/04/12 23:55:19;;;;;;;8.27;6.25;;;;;;;;;;10266959;28;20064;-64
